TN13 weather

CLOSED Barret Airport
Barretville, Tennessee, United States

Public forecast

Using degrees Fahrenheit for public forecast. Weather courtesy of forecast.io.

METAR (pilot weather report)

Closest report is Millington-Memphis Airport, 5.2 nm (9.6 km) WSW. Retrieved 2019/08/26 06:35 UTC (9 minutes ago):

KNQA 260635Z AUTO 16005KT 10SM BKN012 OVC017 23/22 A2986 RMK A01

TAF (pilot weather forecast)

Closest forecast is Memphis International Airport, 22.5 nm (41.6 km) SSW. Retrieved 2019/08/26 06:22 UTC (22 minutes ago):

TAF KMEM 260520Z 2606/2712 16005KT P6SM VCSH SCT008 BKN015 OVC030 TEMPO 2606/2609 OVC008 FM260900 17005KT P6SM BKN008 OVC015 FM261400 18005KT P6SM SCT008 OVC015 FM261600 18007KT P6SM SCT015 BKN025 BKN080 FM261800 18007KT P6SM BKN035 BKN080 FM262000 18005KT P6SM SCT035 SCT080 FM270100 VRB03KT P6SM BKN250